createdAt,value
2019-04-14T00:01:30.544Z,95.40
2019-04-14T00:04:28.996Z,95.40
2019-04-14T00:06:59.290Z,95.30
2019-04-14T00:09:29.462Z,95.40
2019-04-14T00:12:02.084Z,95.50
2019-04-14T00:14:32.053Z,95.40
2019-04-14T00:17:02.153Z,95.40
2019-04-14T00:19:32.698Z,95.70
2019-04-14T00:22:03.506Z,95.40
2019-04-14T00:24:33.743Z,95.40
2019-04-14T00:27:04.242Z,95.50
2019-04-14T00:29:35.089Z,95.50
2019-04-14T00:32:05.453Z,95.50
2019-04-14T00:34:52.945Z,95.60
2019-04-14T00:37:35.943Z,95.60
2019-04-14T00:40:11.287Z,95.60
2019-04-14T00:42:56.451Z,95.60
2019-04-14T00:45:41.624Z,95.60
2019-04-14T00:48:13.145Z,95.70
2019-04-14T00:50:40.895Z,95.70
2019-04-14T00:53:12.104Z,95.60
2019-04-14T00:55:42.607Z,95.80
2019-04-14T00:58:12.799Z,95.80
2019-04-14T01:00:43.196Z,95.80
2019-04-14T01:03:13.457Z,95.80
2019-04-14T01:05:43.718Z,95.80
2019-04-14T01:08:14.174Z,95.90
2019-04-14T01:10:45.349Z,96.00
2019-04-14T01:13:15.815Z,95.90
2019-04-14T01:15:56.818Z,95.90
2019-04-14T01:21:50.307Z,95.90
2019-04-14T01:24:20.718Z,96.00
2019-04-14T01:26:50.748Z,95.90
2019-04-14T01:29:21.020Z,95.80
2019-04-14T01:31:51.525Z,95.90
2019-04-14T01:34:22.274Z,95.90
2019-04-14T01:36:52.371Z,96.00
2019-04-14T01:39:22.534Z,95.90
2019-04-14T01:41:52.709Z,96.00
2019-04-14T01:44:22.654Z,96.10
2019-04-14T01:46:54.164Z,96.00
2019-04-14T01:49:24.745Z,96.10
2019-04-14T01:52:08.178Z,96.10
2019-04-14T01:54:47.251Z,96.10
2019-04-14T01:57:37.642Z,96.20
2019-04-14T02:00:31.571Z,96.30
2019-04-14T02:03:01.944Z,96.20
2019-04-14T02:05:32.139Z,96.20
2019-04-14T02:08:02.462Z,96.20
2019-04-14T02:10:32.669Z,96.30
2019-04-14T02:13:02.866Z,96.30
2019-04-14T02:15:33.073Z,96.40
2019-04-14T02:18:03.566Z,96.40
2019-04-14T02:20:33.936Z,96.50
2019-04-14T02:23:04.378Z,96.50
2019-04-14T02:25:35.926Z,96.50
2019-04-14T02:28:06.933Z,96.50
2019-04-14T02:30:45.743Z,96.50
2019-04-14T02:33:41.395Z,96.50
2019-04-14T02:36:14.228Z,96.40
2019-04-14T02:38:49.015Z,96.40
2019-04-14T02:41:23.481Z,96.30
2019-04-14T02:43:54.565Z,96.30
2019-04-14T02:46:10.035Z,96.30
2019-04-14T02:48:58.753Z,96.20
2019-04-14T02:51:22.372Z,96.20
2019-04-14T02:53:50.136Z,96.30
2019-04-14T02:56:21.790Z,96.30
2019-04-14T02:58:53.811Z,96.70
2019-04-14T03:01:39.464Z,96.40
2019-04-14T03:04:05.917Z,96.30
2019-04-14T03:06:26.110Z,96.50
2019-04-14T03:09:10.835Z,96.40
2019-04-14T03:11:31.195Z,96.40
2019-04-14T03:17:16.199Z,96.40
2019-04-14T03:19:55.993Z,96.40
2019-04-14T03:25:12.550Z,96.30
2019-04-14T03:27:55.109Z,96.30
2019-04-14T03:33:55.614Z,96.40
2019-04-14T03:38:26.315Z,96.50
2019-04-14T03:40:58.551Z,96.40
2019-04-14T03:43:30.982Z,96.40
2019-04-14T03:46:14.875Z,96.40
2019-04-14T03:51:10.717Z,96.40
2019-04-14T03:53:37.729Z,96.40
2019-04-14T03:56:21.688Z,96.50
2019-04-14T03:58:53.221Z,96.50
2019-04-14T04:01:23.772Z,96.50
2019-04-14T04:03:54.289Z,96.40
2019-04-14T04:06:24.656Z,96.50
2019-04-14T04:08:55.248Z,96.50
2019-04-14T04:11:25.875Z,96.50
2019-04-14T04:13:56.367Z,96.50
2019-04-14T04:16:37.396Z,96.60
2019-04-14T04:19:19.756Z,96.50
2019-04-14T04:22:08.539Z,96.60
2019-04-14T04:24:47.564Z,96.60
2019-04-14T04:27:39.737Z,96.70
2019-04-14T04:30:19.031Z,96.70
2019-04-14T04:33:11.186Z,96.60
2019-04-14T04:35:50.118Z,96.70
2019-04-14T04:38:48.774Z,96.80
2019-04-14T04:41:19.202Z,96.90
2019-04-14T04:43:49.775Z,96.90
2019-04-14T04:46:20.417Z,96.90
2019-04-14T04:49:00.923Z,96.90
2019-04-14T04:51:22.475Z,96.80
2019-04-14T04:53:52.834Z,96.70
2019-04-14T04:56:23.226Z,96.60
2019-04-14T04:58:54.520Z,96.60
2019-04-14T05:01:25.931Z,96.50
2019-04-14T05:03:56.533Z,96.60
2019-04-14T05:07:01.699Z,96.50
2019-04-14T05:09:51.299Z,96.50
2019-04-14T05:12:41.888Z,96.50
2019-04-14T05:15:33.947Z,96.50
2019-04-14T05:18:04.974Z,96.50
2019-04-14T05:20:35.781Z,96.60
2019-04-14T05:23:05.943Z,96.70
2019-04-14T05:25:36.565Z,96.70
2019-04-14T05:28:07.148Z,96.90
2019-04-14T05:30:37.317Z,96.60
2019-04-14T05:33:07.532Z,96.50
2019-04-14T05:35:38.067Z,96.50
2019-04-14T05:38:08.525Z,96.40
2019-04-14T05:40:39.024Z,96.50
2019-04-14T05:43:09.078Z,96.40
2019-04-14T05:45:39.528Z,96.50
2019-04-14T05:48:10.070Z,96.60
2019-04-14T05:50:40.117Z,96.60
2019-04-14T05:53:11.037Z,96.60
2019-04-14T05:55:41.658Z,96.50
2019-04-14T05:58:12.202Z,96.50
2019-04-14T06:00:46.375Z,96.50
2019-04-14T06:03:16.772Z,96.50
2019-04-14T06:05:49.369Z,96.50
2019-04-14T06:08:19.108Z,96.60
2019-04-14T06:10:49.112Z,96.60
2019-04-14T06:13:19.000Z,96.70
2019-04-14T06:15:49.140Z,96.80
2019-04-14T06:18:18.954Z,96.60
2019-04-14T06:20:48.718Z,96.70
2019-04-14T06:23:18.876Z,96.80
2019-04-14T06:25:48.812Z,96.70
2019-04-14T06:28:18.777Z,96.70
2019-04-14T06:31:08.953Z,96.70
2019-04-14T06:33:58.410Z,96.60
2019-04-14T06:36:42.686Z,96.70
2019-04-14T06:39:31.560Z,96.40
2019-04-14T06:42:01.500Z,96.20
2019-04-14T06:44:31.426Z,96.10
2019-04-14T06:47:01.302Z,96.20
2019-04-14T06:49:31.119Z,96.20
2019-04-14T06:52:01.112Z,96.20
2019-04-14T06:54:31.060Z,96.10
2019-04-14T06:57:01.053Z,96.00
2019-04-14T06:59:31.031Z,95.90
2019-04-14T07:02:01.812Z,95.80
2019-04-14T07:04:32.103Z,95.80
2019-04-14T07:07:03.126Z,95.80
2019-04-14T07:09:33.094Z,95.70
2019-04-14T07:12:03.335Z,96.00
2019-04-14T07:14:33.170Z,95.90
2019-04-14T07:17:03.054Z,95.80
2019-04-14T07:19:32.913Z,95.60
2019-04-14T07:22:02.863Z,95.60
2019-04-14T07:24:32.653Z,95.60
2019-04-14T07:27:02.450Z,95.50
2019-04-14T07:29:41.799Z,95.40
2019-04-14T07:32:29.390Z,95.50
2019-04-14T07:38:44.535Z,95.30
2019-04-14T07:41:42.605Z,95.20
2019-04-14T07:44:33.998Z,95.00
2019-04-14T07:47:16.675Z,95.00
2019-04-14T07:50:14.492Z,95.00
2019-04-14T07:52:50.067Z,94.90
2019-04-14T07:55:42.048Z,94.70
2019-04-14T07:58:31.010Z,94.70
2019-04-14T08:01:19.917Z,94.50
2019-04-14T08:04:12.296Z,94.40
2019-04-14T08:06:46.843Z,94.30
2019-04-14T08:09:17.233Z,94.30
2019-04-14T08:11:47.634Z,94.20
2019-04-14T08:14:17.400Z,94.20
2019-04-14T08:16:47.221Z,94.10
2019-04-14T08:22:58.070Z,93.90
2019-04-14T08:25:28.093Z,93.90
2019-04-14T08:27:57.888Z,94.00
2019-04-14T08:30:27.906Z,94.00
2019-04-14T08:32:57.718Z,93.90
2019-04-14T08:35:27.575Z,93.70
2019-04-14T08:37:57.547Z,93.50
2019-04-14T08:40:27.442Z,93.30
2019-04-14T08:43:28.426Z,93.10
2019-04-14T08:46:23.571Z,93.20
2019-04-14T08:49:02.659Z,93.10
2019-04-14T08:51:37.082Z,92.70
2019-04-14T08:54:22.648Z,92.60
2019-04-14T08:57:11.507Z,92.10
2019-04-14T09:00:15.686Z,92.20
2019-04-14T09:03:00.611Z,91.90
2019-04-14T09:09:27.451Z,91.40
2019-04-14T09:12:14.931Z,91.20
2019-04-14T09:14:35.499Z,90.80
2019-04-14T09:17:05.449Z,90.80
2019-04-14T09:19:35.307Z,90.80
2019-04-14T09:22:05.092Z,90.70
2019-04-14T09:24:34.888Z,90.10
2019-04-14T09:27:04.801Z,90.10
2019-04-14T09:29:34.568Z,89.00
2019-04-14T09:32:06.174Z,89.20
2019-04-14T09:34:35.963Z,89.20
2019-04-14T09:37:05.729Z,88.00
2019-04-14T09:39:35.571Z,87.50
2019-04-14T09:42:05.448Z,87.50
2019-04-14T09:44:35.397Z,86.70
2019-04-14T09:47:05.432Z,84.50
2019-04-14T09:53:07.690Z,81.50
2019-04-14T09:55:37.498Z,80.90
2019-04-14T09:58:07.190Z,81.50
2019-04-14T10:00:39.268Z,79.70
2019-04-14T10:03:09.802Z,77.70
2019-04-14T10:05:39.576Z,77.30
2019-04-14T10:08:09.316Z,74.80
2019-04-14T10:10:39.140Z,73.50
2019-04-14T10:13:09.138Z,73.80
2019-04-14T10:15:39.014Z,70.40
2019-04-14T10:18:08.962Z,69.40
2019-04-14T10:20:38.828Z,70.20
2019-04-14T10:23:08.828Z,69.10
2019-04-14T10:25:38.664Z,63.70
2019-04-14T10:28:08.500Z,67.20
2019-04-14T10:30:38.440Z,66.50
2019-04-14T10:33:08.276Z,68.20
2019-04-14T10:35:38.064Z,66.90
2019-04-14T10:38:07.971Z,65.00
2019-04-14T10:40:37.804Z,64.90
2019-04-14T10:43:07.643Z,66.60
2019-04-14T10:45:37.576Z,66.70
2019-04-14T10:48:07.442Z,66.40
2019-04-14T10:50:37.348Z,66.20
2019-04-14T10:53:07.146Z,65.80
2019-04-14T10:55:37.023Z,66.30
2019-04-14T10:58:07.000Z,67.50
2019-04-14T11:00:37.008Z,65.80
2019-04-14T11:03:06.871Z,64.80
2019-04-14T11:05:49.919Z,64.50
2019-04-14T11:08:20.526Z,64.80
2019-04-14T11:10:50.504Z,64.10
2019-04-14T11:13:20.209Z,63.50
2019-04-14T11:15:50.223Z,63.30
2019-04-14T11:18:20.229Z,64.20
2019-04-14T11:20:50.014Z,62.90
2019-04-14T11:23:19.892Z,61.20
2019-04-14T11:25:49.799Z,61.80
2019-04-14T11:28:19.788Z,61.40
2019-04-14T11:30:50.269Z,59.60
2019-04-14T11:33:39.547Z,60.30
2019-04-14T11:36:37.382Z,63.00
2019-04-14T11:39:13.122Z,63.30
2019-04-14T11:41:43.110Z,62.00
2019-04-14T11:44:12.841Z,60.60
2019-04-14T11:46:42.637Z,60.40
2019-04-14T11:49:12.491Z,58.40
2019-04-14T11:51:54.436Z,58.00
2019-04-14T11:54:14.107Z,59.70
2019-04-14T11:56:43.999Z,58.60
2019-04-14T11:59:13.829Z,57.20
2019-04-14T12:01:53.062Z,57.20
2019-04-14T12:04:35.499Z,57.10
2019-04-14T12:07:27.079Z,56.40
2019-04-14T12:10:00.271Z,56.80
2019-04-14T12:12:30.121Z,54.70
2019-04-14T12:14:59.851Z,55.00
2019-04-14T12:17:29.628Z,53.60
2019-04-14T12:19:59.562Z,54.00
2019-04-14T12:22:29.313Z,53.00
2019-04-14T12:24:59.114Z,52.40
2019-04-14T12:27:29.087Z,51.70
2019-04-14T12:29:58.966Z,50.40
2019-04-14T12:32:30.301Z,51.10
2019-04-14T12:35:00.125Z,51.80
2019-04-14T12:37:30.031Z,50.80
2019-04-14T12:39:59.829Z,51.70
2019-04-14T12:42:49.481Z,51.90
2019-04-14T12:45:50.299Z,51.80
2019-04-14T12:48:37.981Z,53.20
2019-04-14T12:51:16.511Z,54.60
2019-04-14T12:53:46.339Z,53.20
2019-04-14T12:56:18.774Z,52.70
2019-04-14T12:59:13.589Z,51.20
2019-04-14T13:01:52.224Z,51.00
2019-04-14T13:04:22.217Z,51.50
2019-04-14T13:06:52.250Z,51.90
2019-04-14T13:09:22.142Z,52.10
2019-04-14T13:11:52.086Z,52.50
2019-04-14T13:14:21.857Z,52.40
2019-04-14T13:16:51.714Z,51.30
2019-04-14T13:19:21.641Z,50.90
2019-04-14T13:21:51.679Z,50.60
2019-04-14T13:24:21.737Z,48.70
2019-04-14T13:26:51.595Z,49.30
2019-04-14T13:29:21.380Z,50.30
2019-04-14T13:31:51.365Z,49.30
2019-04-14T13:38:03.093Z,50.10
2019-04-14T13:40:32.997Z,52.30
2019-04-14T13:43:02.857Z,51.80
2019-04-14T13:45:32.655Z,51.90
2019-04-14T13:48:02.465Z,52.80
2019-04-14T13:50:32.361Z,51.80
2019-04-14T13:53:02.157Z,50.80
2019-04-14T13:55:31.922Z,50.20
2019-04-14T13:58:01.735Z,50.30
2019-04-14T14:00:31.564Z,49.40
2019-04-14T14:03:01.303Z,49.70
2019-04-14T14:05:31.164Z,50.10
2019-04-14T14:08:01.076Z,50.00
2019-04-14T14:10:32.255Z,49.10
2019-04-14T14:13:14.936Z,48.20
2019-04-14T14:16:02.995Z,47.90
2019-04-14T14:18:51.832Z,47.50
2019-04-14T14:21:39.604Z,48.10
2019-04-14T14:24:26.984Z,46.50
2019-04-14T14:26:57.720Z,46.40
2019-04-14T14:29:27.602Z,47.70
2019-04-14T14:31:58.374Z,47.00
2019-04-14T14:34:28.128Z,46.50
2019-04-14T14:36:57.994Z,46.30
2019-04-14T14:39:27.884Z,47.20
2019-04-14T14:41:57.599Z,48.30
2019-04-14T14:44:34.250Z,48.60
2019-04-14T14:47:13.138Z,47.70
2019-04-14T14:50:04.762Z,48.60
2019-04-14T14:52:35.540Z,48.40
2019-04-14T14:55:06.784Z,48.20
2019-04-14T14:57:36.628Z,46.80
2019-04-14T15:00:20.394Z,47.00
2019-04-14T15:02:50.230Z,47.20
2019-04-14T15:05:20.184Z,48.20
2019-04-14T15:07:50.078Z,48.10
2019-04-14T15:10:37.708Z,47.60
2019-04-14T15:13:07.505Z,47.10
2019-04-14T15:15:37.337Z,46.70
2019-04-14T15:18:07.270Z,46.10
2019-04-14T15:20:37.173Z,46.00
2019-04-14T15:23:07.074Z,46.50
2019-04-14T15:25:37.067Z,46.60
2019-04-14T15:28:07.032Z,47.00
2019-04-14T15:30:37.272Z,48.10
2019-04-14T15:33:07.249Z,48.70
2019-04-14T15:35:37.624Z,49.10
2019-04-14T15:38:07.548Z,49.50
2019-04-14T15:40:37.374Z,49.60
2019-04-14T15:43:07.312Z,49.10
2019-04-14T15:45:37.345Z,48.20
2019-04-14T15:48:07.216Z,46.90
2019-04-14T15:54:09.943Z,47.20
2019-04-14T15:56:56.160Z,48.40
2019-04-14T15:59:48.623Z,48.50
2019-04-14T16:02:32.933Z,49.30
2019-04-14T16:05:24.585Z,49.50
2019-04-14T16:08:02.369Z,49.90
2019-04-14T16:10:54.423Z,50.60
2019-04-14T16:13:40.012Z,50.20
2019-04-14T16:16:31.716Z,50.00
2019-04-14T16:19:23.407Z,49.80
2019-04-14T16:21:53.460Z,49.40
2019-04-14T16:24:23.342Z,49.40
2019-04-14T16:27:07.206Z,50.50
2019-04-14T16:29:45.947Z,51.40
2019-04-14T16:32:45.223Z,52.00
2019-04-14T16:35:19.999Z,52.30
2019-04-14T16:37:50.019Z,52.70
2019-04-14T16:40:19.893Z,53.10
2019-04-14T16:42:49.792Z,53.30
2019-04-14T16:45:19.713Z,53.40
2019-04-14T16:47:49.625Z,53.50
2019-04-14T16:50:19.567Z,53.70
2019-04-14T16:52:55.099Z,53.80
2019-04-14T16:55:40.849Z,53.80
2019-04-14T16:58:32.416Z,53.70
2019-04-14T17:01:06.328Z,53.90
2019-04-14T17:03:36.481Z,54.10
2019-04-14T17:06:06.380Z,54.30
2019-04-14T17:08:36.192Z,54.10
2019-04-14T17:11:06.745Z,54.00
2019-04-14T17:13:40.687Z,54.10
2019-04-14T17:16:41.616Z,54.30
2019-04-14T17:19:26.644Z,55.00
2019-04-14T17:22:11.682Z,55.40
2019-04-14T17:25:06.435Z,55.40
2019-04-14T17:28:04.578Z,55.40
2019-04-14T17:30:39.825Z,56.00
2019-04-14T17:33:34.682Z,56.50
2019-04-14T17:40:11.872Z,57.10
2019-04-14T17:42:50.643Z,57.70
2019-04-14T17:45:38.384Z,58.00
2019-04-14T17:48:26.142Z,58.10
2019-04-14T17:51:13.737Z,58.00
2019-04-14T17:53:51.314Z,58.20
2019-04-14T17:56:43.226Z,58.30
2019-04-14T17:59:26.894Z,59.20
2019-04-14T18:02:01.858Z,58.90
2019-04-14T18:04:48.044Z,59.00
2019-04-14T18:07:22.757Z,59.10
2019-04-14T18:10:15.548Z,59.00
2019-04-14T18:12:59.151Z,59.10
2019-04-14T18:15:46.432Z,59.50
2019-04-14T18:18:31.494Z,59.80
2019-04-14T18:21:05.399Z,60.20
2019-04-14T18:23:35.314Z,60.30
2019-04-14T18:26:05.207Z,61.00
2019-04-14T18:28:49.455Z,61.40
2019-04-14T18:31:24.810Z,61.70
2019-04-14T18:34:19.893Z,62.10
2019-04-14T18:40:43.840Z,62.10
2019-04-14T18:43:51.925Z,61.80
2019-04-14T18:46:35.506Z,62.20
2019-04-14T18:49:30.334Z,62.40
2019-04-14T18:52:21.257Z,62.60
2019-04-14T18:55:00.799Z,63.70
2019-04-14T18:58:01.597Z,63.60
2019-04-14T19:00:47.545Z,64.50
2019-04-14T19:03:17.866Z,64.60
2019-04-14T19:05:48.184Z,64.20
2019-04-14T19:08:18.331Z,64.50
2019-04-14T19:11:01.506Z,64.70
2019-04-14T19:13:32.381Z,64.60
2019-04-14T19:16:12.070Z,65.20
2019-04-14T19:18:45.546Z,65.40
2019-04-14T19:28:45.421Z,65.60
2019-04-14T19:31:15.265Z,66.00
2019-04-14T19:33:44.923Z,66.60
2019-04-14T19:36:14.607Z,66.80
2019-04-14T19:38:44.317Z,66.90
2019-04-14T19:41:14.309Z,67.50
2019-04-14T19:43:44.166Z,68.00
2019-04-14T19:46:14.054Z,68.60
2019-04-14T19:48:43.778Z,68.80
2019-04-14T19:54:46.002Z,68.80
2019-04-14T19:57:15.838Z,69.00
2019-04-14T19:59:45.682Z,69.10
2019-04-14T20:02:15.615Z,69.10
2019-04-14T20:04:45.498Z,69.60
2019-04-14T20:07:15.303Z,69.70
2019-04-14T20:09:45.185Z,69.30
2019-04-14T20:12:15.572Z,69.80
2019-04-14T20:14:45.397Z,69.80
2019-04-14T20:17:32.042Z,69.60
2019-04-14T20:20:35.783Z,69.70
2019-04-14T20:23:36.980Z,70.00
2019-04-14T20:26:28.470Z,70.30
2019-04-14T20:29:06.967Z,70.70
2019-04-14T20:32:01.643Z,70.70
2019-04-14T20:34:31.443Z,70.70
2019-04-14T20:37:01.133Z,70.80
2019-04-14T20:39:31.513Z,71.40
2019-04-14T20:42:01.886Z,71.50
2019-04-14T20:44:31.667Z,71.70
2019-04-14T20:47:01.493Z,72.10
2019-04-14T20:49:31.407Z,72.30
2019-04-14T20:55:50.837Z,73.30
2019-04-14T20:58:20.557Z,73.80
2019-04-14T21:00:50.316Z,73.80
2019-04-14T21:03:37.818Z,73.70
2019-04-14T21:06:29.451Z,73.80
2019-04-14T21:09:11.688Z,74.10
2019-04-14T21:11:49.633Z,74.10
2019-04-14T21:14:35.679Z,75.30
2019-04-14T21:17:14.041Z,75.40
2019-04-14T21:19:48.917Z,75.70
2019-04-14T21:22:43.853Z,75.50
2019-04-14T21:25:18.859Z,75.70
2019-04-14T21:28:01.355Z,75.80
2019-04-14T21:30:42.312Z,77.30
2019-04-14T21:33:28.320Z,76.90
2019-04-14T21:36:10.902Z,77.00
2019-04-14T21:38:47.910Z,76.90
2019-04-14T21:41:21.357Z,77.30
2019-04-14T21:43:52.084Z,77.40
2019-04-14T21:46:25.011Z,76.90
2019-04-14T21:48:54.973Z,77.70
2019-04-14T21:55:01.805Z,77.90
2019-04-14T21:57:45.792Z,79.00
2019-04-14T22:00:34.470Z,79.50
2019-04-14T22:03:32.758Z,79.40
2019-04-14T22:06:24.314Z,79.30
2019-04-14T22:08:54.997Z,79.60
2019-04-14T22:11:26.556Z,79.60
2019-04-14T22:13:56.840Z,79.70
2019-04-14T22:16:27.422Z,80.30
2019-04-14T22:18:57.332Z,80.40
2019-04-14T22:25:09.146Z,80.30
2019-04-14T22:27:39.256Z,80.90
2019-04-14T22:30:09.663Z,80.80
2019-04-14T22:32:39.606Z,81.00
2019-04-14T22:35:09.553Z,81.60
2019-04-14T22:37:39.538Z,82.10
2019-04-14T22:40:09.759Z,83.00
2019-04-14T22:42:39.640Z,83.20
2019-04-14T22:45:09.522Z,82.80
2019-04-14T22:47:39.373Z,83.40
2019-04-14T22:50:09.728Z,83.60
2019-04-14T22:52:39.552Z,83.00
2019-04-14T22:55:09.884Z,84.40
2019-04-14T22:57:39.761Z,84.50
2019-04-14T23:00:14.003Z,84.40
2019-04-14T23:02:54.813Z,84.90
2019-04-14T23:12:19.568Z,85.90
2019-04-14T23:15:11.298Z,85.60
2019-04-14T23:17:51.153Z,85.70
2019-04-14T23:20:31.800Z,85.70
2019-04-14T23:23:12.822Z,85.50
2019-04-14T23:25:42.730Z,86.40
2019-04-14T23:28:12.640Z,86.60
2019-04-14T23:30:42.519Z,86.10
2019-04-14T23:33:12.432Z,86.20
2019-04-14T23:35:42.321Z,86.50
2019-04-14T23:38:12.309Z,87.20
2019-04-14T23:40:42.236Z,86.80
2019-04-14T23:43:12.078Z,86.20
2019-04-14T23:45:41.998Z,86.10
2019-04-14T23:48:11.954Z,86.90
2019-04-14T23:50:41.872Z,87.20
2019-04-14T23:53:11.914Z,87.50
2019-04-14T23:55:41.858Z,87.20
2019-04-14T23:58:11.910Z,87.40
